Time;durP1;ratioP1;P1;durP2;ratioP2;P2;SDS_P1;SDS_P2;PMS_P1;PMS_P2;Temp;Humidity;BMP_temperature;BMP_pressure;BME280_temperature;BME280_humidity;BME280_pressure;Samples;Min_cycle;Max_cycle;Signal;HPM_P1;HPM_P2
2022/04/19 00:00:34;;;;;;;;;;;;;;;20.48;41.83;101079.63;5113554;28;2965;-56
2022/04/19 00:03:02;;;;;;;;;;;;;;;20.46;41.85;101083.13;5116521;28;2905;-57
2022/04/19 00:05:29;;;;;;;;;;;;;;;20.45;41.95;101078.03;5124617;28;2771;-57
2022/04/19 00:07:55;;;;;;;;;;;;;;;20.45;41.81;101075.88;5119133;27;2531;-57
2022/04/19 00:10:21;;;;;;;;;;;;;;;20.43;41.87;101075.81;5122710;27;2752;-57
2022/04/19 00:12:48;;;;;;;;;;;;;;;20.43;41.86;101070.06;5121510;27;2810;-57
2022/04/19 00:15:17;;;;;;;;;;;;;;;20.42;41.94;101073.56;5118382;27;2727;-57
2022/04/19 00:17:43;;;;;;;;;;;;;;;20.41;41.80;101069.94;5125855;27;2970;-57
2022/04/19 00:20:09;;;;;;;;;;;;;;;20.40;41.91;101065.56;5123817;27;2669;-57
2022/04/19 00:22:36;;;;;;;;;;;;;;;20.41;41.90;101069.94;5124604;27;2871;-57
2022/04/19 00:25:02;;;;;;;;;;;;;;;20.44;41.78;101062.91;5119596;27;2960;-57
2022/04/19 00:27:29;;;;;;;;;;;;;;;20.43;41.71;101058.53;5119215;27;2937;-56
2022/04/19 00:29:55;;;;;;;;;;;;;;;20.47;41.86;101058.00;5123311;27;2908;-55
2022/04/19 00:32:23;;;;;;;;;;;;;;;20.47;41.91;101061.59;5114583;27;2944;-56
2022/04/19 00:34:50;;;;;;;;;;;;;;;20.49;42.03;101049.47;5120076;27;2918;-57
2022/04/19 00:37:18;;;;;;;;;;;;;;;20.47;41.88;101047.22;5108433;27;2803;-56
2022/04/19 00:39:45;;;;;;;;;;;;;;;20.50;41.91;101050.94;5123456;27;2954;-57
2022/04/19 00:42:11;;;;;;;;;;;;;;;20.50;41.86;101045.19;5116747;27;3056;-57
2022/04/19 00:44:39;;;;;;;;;;;;;;;20.51;41.85;101047.41;5125161;27;2675;-57
2022/04/19 00:47:09;;;;;;;;;;;;;;;20.48;41.99;101047.97;5122590;27;3138;-57
2022/04/19 00:49:39;;;;;;;;;;;;;;;20.49;42.09;101052.34;5120560;27;2835;-57
2022/04/19 00:52:06;;;;;;;;;;;;;;;20.47;42.19;101050.09;5112088;27;2747;-57
2022/04/19 00:54:33;;;;;;;;;;;;;;;20.47;42.27;101052.97;5095171;27;3089;-57
2022/04/19 00:57:00;;;;;;;;;;;;;;;20.48;42.30;101051.59;5084803;27;2880;-57
2022/04/19 00:59:26;;;;;;;;;;;;;;;20.46;42.41;101051.50;5108760;27;3206;-57
2022/04/19 01:01:52;;;;;;;;;;;;;;;20.42;42.41;101039.78;5119124;27;2866;-57
2022/04/19 01:04:19;;;;;;;;;;;;;;;20.43;42.47;101047.03;5100326;27;3025;-58
2022/04/19 01:06:46;;;;;;;;;;;;;;;20.44;42.37;101039.88;5105998;27;2857;-56
2022/04/19 01:09:12;;;;;;;;;;;;;;;20.43;42.47;101034.78;5104141;27;2757;-57
2022/04/19 01:14:24;;;;;;;;;;;;;;;20.44;42.44;101048.50;5094217;27;2750;-56
2022/04/19 01:16:51;;;;;;;;;;;;;;;20.44;42.44;101047.78;5105045;27;2911;-57
2022/04/19 01:19:18;;;;;;;;;;;;;;;20.45;42.45;101044.25;5121367;27;2874;-57
2022/04/19 01:21:46;;;;;;;;;;;;;;;20.43;42.47;101044.16;5118565;27;2764;-56
2022/04/19 01:24:18;;;;;;;;;;;;;;;20.44;42.35;101042.03;5099444;27;2989;-56
2022/04/19 01:26:46;;;;;;;;;;;;;;;20.45;42.35;101047.13;5119902;27;2589;-56
2022/04/19 01:29:12;;;;;;;;;;;;;;;20.45;42.28;101043.50;5096737;27;2841;-56
2022/04/19 01:31:41;;;;;;;;;;;;;;;20.44;42.34;101034.13;5099143;27;2931;-56
2022/04/19 01:34:08;;;;;;;;;;;;;;;20.44;42.25;101039.16;5114207;27;2737;-57
2022/04/19 01:36:38;;;;;;;;;;;;;;;20.43;42.19;101040.53;5102536;27;2971;-56
2022/04/19 01:39:05;;;;;;;;;;;;;;;20.43;42.33;101041.28;5119923;27;2927;-56
2022/04/19 01:41:31;;;;;;;;;;;;;;;20.42;42.19;101030.41;5122485;27;3195;-56
2022/04/19 01:44:00;;;;;;;;;;;;;;;20.41;42.34;101023.16;5100966;27;2891;-56
2022/04/19 01:46:27;;;;;;;;;;;;;;;20.39;42.34;101029.56;5125241;27;2632;-56
2022/04/19 01:48:57;;;;;;;;;;;;;;;20.40;42.21;101027.44;5103814;27;2924;-57
2022/04/19 01:51:24;;;;;;;;;;;;;;;20.40;42.26;101030.31;5100286;27;2918;-57
2022/04/19 01:53:50;;;;;;;;;;;;;;;20.38;42.21;101030.22;5103548;27;2779;-56
2022/04/19 01:56:18;;;;;;;;;;;;;;;20.39;42.21;101029.56;5101680;27;2976;-57
2022/04/19 01:59:04;;;;;;;;;;;;;;;20.37;42.31;101023.72;5116990;27;3086;-57
2022/04/19 02:02:09;;;;;;;;;;;;;;;20.35;42.22;101035.13;5106046;27;2922;-57
2022/04/19 02:04:35;;;;;;;;;;;;;;;20.34;42.25;101027.91;5102124;27;2870;-57
2022/04/19 02:07:03;;;;;;;;;;;;;;;20.36;42.21;101025.09;5114968;27;2719;-57
2022/04/19 02:09:30;;;;;;;;;;;;;;;20.34;42.27;101027.91;5100109;27;2802;-57
2022/04/19 02:11:57;;;;;;;;;;;;;;;20.35;42.13;101031.50;5107394;27;3003;-57
2022/04/19 02:14:42;;;;;;;;;;;;;;;20.34;42.16;101016.41;5121079;27;2786;-57
2022/04/19 02:17:12;;;;;;;;;;;;;;;20.32;42.24;101024.91;5098571;27;2956;-57
2022/04/19 02:19:39;;;;;;;;;;;;;;;20.31;42.27;101017.66;5116637;27;3045;-57
2022/04/19 02:22:06;;;;;;;;;;;;;;;20.32;42.11;101018.41;5099470;27;2839;-56
2022/04/19 02:24:34;;;;;;;;;;;;;;;20.32;42.16;101010.53;5102163;27;2912;-57
2022/04/19 02:27:00;;;;;;;;;;;;;;;20.30;42.15;101016.19;5119322;27;3009;-55
2022/04/19 02:29:27;;;;;;;;;;;;;;;20.30;42.21;101019.81;5101911;27;2814;-57
2022/04/19 02:31:54;;;;;;;;;;;;;;;20.31;42.14;101017.66;5090310;28;2904;-57
2022/04/19 02:34:21;;;;;;;;;;;;;;;20.31;42.13;101006.16;5096568;28;2705;-57
2022/04/19 02:36:49;;;;;;;;;;;;;;;20.29;42.01;101020.44;5093770;28;2771;-56
2022/04/19 02:39:16;;;;;;;;;;;;;;;20.29;42.12;101017.56;5093173;28;2983;-56
2022/04/19 02:41:43;;;;;;;;;;;;;;;20.28;42.14;101013.94;5097961;28;3106;-57
2022/04/19 02:44:10;;;;;;;;;;;;;;;20.29;42.11;101020.44;5097088;28;3074;-56
2022/04/19 02:46:39;;;;;;;;;;;;;;;20.30;42.12;101010.44;5103434;28;2841;-56
2022/04/19 02:49:08;;;;;;;;;;;;;;;20.30;41.97;101010.44;5110032;27;3025;-56
2022/04/19 02:51:35;;;;;;;;;;;;;;;20.31;42.03;101014.78;5090804;28;3039;-56
2022/04/19 02:54:01;;;;;;;;;;;;;;;20.35;41.92;101012.13;5096294;28;3177;-57
2022/04/19 02:56:28;;;;;;;;;;;;;;;20.32;42.13;101013.41;5100176;28;2839;-56
2022/04/19 02:58:55;;;;;;;;;;;;;;;20.32;42.22;101001.16;5098433;28;2718;-56
2022/04/19 03:01:24;;;;;;;;;;;;;;;20.33;42.31;101009.13;5114114;27;2898;-56
2022/04/19 03:03:51;;;;;;;;;;;;;;;20.33;42.63;101011.28;5088434;28;2992;-56
2022/04/19 03:06:18;;;;;;;;;;;;;;;20.33;43.02;101006.25;5089531;28;3003;-56
2022/04/19 03:08:44;;;;;;;;;;;;;;;20.33;43.15;100997.63;5093820;28;2987;-56
2022/04/19 03:11:12;;;;;;;;;;;;;;;20.34;43.03;100998.38;5095050;28;2813;-57
2022/04/19 03:13:38;;;;;;;;;;;;;;;20.37;42.71;101015.09;5105309;28;2633;-56
2022/04/19 03:16:05;;;;;;;;;;;;;;;20.34;42.72;101009.88;5105808;27;3031;-56
2022/04/19 03:18:32;;;;;;;;;;;;;;;20.33;42.86;101009.13;5094443;28;3073;-56
2022/04/19 03:21:01;;;;;;;;;;;;;;;20.35;42.70;100999.88;5100229;28;2748;-56
2022/04/19 03:29:14;;;;;;;;;;;;;;;20.36;43.14;100999.22;5087938;28;2833;-56
2022/04/19 03:31:41;;;;;;;;;;;;;;;20.36;43.50;100996.34;5092325;28;2844;-56
2022/04/19 03:34:08;;;;;;;;;;;;;;;20.35;43.29;100999.88;5098962;28;2852;-56
2022/04/19 03:36:35;;;;;;;;;;;;;;;20.33;43.56;101002.66;5093167;28;3145;-57
2022/04/19 03:39:01;;;;;;;;;;;;;;;20.34;43.48;100996.25;5097892;28;3114;-56
2022/04/19 03:41:28;;;;;;;;;;;;;;;20.36;43.32;100996.34;5099008;28;3155;-56
2022/04/19 03:43:55;;;;;;;;;;;;;;;20.38;43.33;100995.69;5097779;28;2797;-56
2022/04/19 03:46:21;;;;;;;;;;;;;;;20.37;43.40;100997.84;5100447;28;2815;-56
2022/04/19 03:48:47;;;;;;;;;;;;;;;20.38;43.69;100987.81;5093845;28;3542;-57
2022/04/19 03:51:14;;;;;;;;;;;;;;;20.40;43.32;100996.53;5086891;28;2889;-56
2022/04/19 03:53:43;;;;;;;;;;;;;;;20.39;43.35;100992.19;5096625;28;3176;-57
2022/04/19 03:56:12;;;;;;;;;;;;;;;20.41;43.49;100991.53;5096125;28;2982;-56
2022/04/19 03:58:38;;;;;;;;;;;;;;;20.40;43.70;100995.81;5099049;28;2945;-56
2022/04/19 04:01:05;;;;;;;;;;;;;;;20.41;43.40;101000.91;5110506;28;2638;-56
2022/04/19 04:03:32;;;;;;;;;;;;;;;20.40;43.63;101010.91;5088342;28;2797;-57
2022/04/19 04:05:59;;;;;;;;;;;;;;;20.40;43.36;100999.41;5093490;28;3023;-57
2022/04/19 04:08:25;;;;;;;;;;;;;;;20.40;43.20;100996.53;5096102;28;2711;-56
2022/04/19 04:10:52;;;;;;;;;;;;;;;20.41;43.17;100998.03;5101420;28;2735;-56
2022/04/19 04:13:23;;;;;;;;;;;;;;;20.38;43.32;101005.06;5105671;28;2712;-57
2022/04/19 04:15:50;;;;;;;;;;;;;;;20.39;43.22;101012.31;5098849;28;3582;-57
2022/04/19 04:18:16;;;;;;;;;;;;;;;20.39;43.25;101006.56;5099713;28;2972;-56
2022/04/19 04:20:43;;;;;;;;;;;;;;;20.40;43.29;101008.03;5100974;28;3030;-57
2022/04/19 04:23:09;;;;;;;;;;;;;;;20.42;43.32;101004.53;5097133;28;2953;-56
2022/04/19 04:25:36;;;;;;;;;;;;;;;20.42;43.83;101008.16;5099364;28;2828;-55
2022/04/19 04:28:02;;;;;;;;;;;;;;;20.40;44.61;100996.53;5086612;28;3154;-56
2022/04/19 04:30:39;;;;;;;;;;;;;;;20.43;44.34;101001.03;5088960;28;2875;-56
2022/04/19 04:33:05;;;;;;;;;;;;;;;20.43;44.41;100998.13;5071784;28;3048;-56
2022/04/19 04:35:32;;;;;;;;;;;;;;;20.41;44.42;101009.53;5088500;28;3045;-57
2022/04/19 04:37:58;;;;;;;;;;;;;;;20.42;44.35;100993.03;5076480;28;3177;-56
2022/04/19 04:40:26;;;;;;;;;;;;;;;20.41;44.15;100998.03;5073561;28;2931;-57
2022/04/19 04:42:58;;;;;;;;;;;;;;;20.41;44.18;100998.03;5090459;28;2869;-57
2022/04/19 04:45:28;;;;;;;;;;;;;;;20.40;44.37;101008.03;5073914;28;3159;-57
2022/04/19 04:50:39;;;;;;;;;;;;;;;20.45;44.18;101003.97;5071957;28;2979;-57
2022/04/19 04:53:07;;;;;;;;;;;;;;;20.47;44.09;101006.94;5088746;28;2933;-65
2022/04/19 04:55:38;;;;;;;;;;;;;;;20.46;44.34;100999.72;5080602;28;2913;-59
2022/04/19 04:58:11;;;;;;;;;;;;;;;20.05;38.51;101014.97;5073931;28;2942;-65
2022/04/19 05:00:38;;;;;;;;;;;;;;;19.37;35.01;101007.88;5090107;27;2858;-58
2022/04/19 05:03:04;;;;;;;;;;;;;;;19.76;35.97;101006.31;5076345;28;2922;-63
2022/04/19 05:05:31;;;;;;;;;;;;;;;19.50;34.45;101015.03;5084830;28;2911;-68
2022/04/19 05:08:02;;;;;;;;;;;;;;;18.86;33.58;101025.25;5068523;28;2824;-68
2022/04/19 05:10:28;;;;;;;;;;;;;;;18.73;32.80;101018.03;5071499;28;2692;-69
2022/04/19 05:12:55;;;;;;;;;;;;;;;18.90;32.01;101019.75;5076091;28;2552;-57
2022/04/19 05:15:24;;;;;;;;;;;;;;;18.91;32.69;101014.75;5091176;28;2641;-58
2022/04/19 05:17:52;;;;;;;;;;;;;;;19.22;32.91;101009.25;5094809;27;2675;-58
2022/04/19 05:20:18;;;;;;;;;;;;;;;19.44;33.88;101014.69;5085736;28;2408;-57
2022/04/19 05:22:45;;;;;;;;;;;;;;;19.55;35.70;101010.97;5098314;27;2561;-57
2022/04/19 05:25:12;;;;;;;;;;;;;;;19.61;36.59;101007.69;5081343;28;2547;-57
2022/04/19 05:27:38;;;;;;;;;;;;;;;19.66;36.80;101018.72;5082466;28;1791;-57
2022/04/19 05:30:05;;;;;;;;;;;;;;;19.73;36.83;101014.06;5084345;28;2408;-57
2022/04/19 05:32:33;;;;;;;;;;;;;;;19.79;36.99;101013.63;5100601;28;2596;-57
2022/04/19 05:35:06;;;;;;;;;;;;;;;19.83;37.38;101011.72;5107185;28;2672;-57
2022/04/19 05:37:35;;;;;;;;;;;;;;;19.87;37.70;101011.19;5107104;28;1706;-58
2022/04/19 05:40:02;;;;;;;;;;;;;;;19.93;38.02;101016.47;5118914;27;2610;-57
2022/04/19 05:42:28;;;;;;;;;;;;;;;19.95;38.36;101011.59;5123206;27;2585;-57
2022/04/19 05:44:55;;;;;;;;;;;;;;;19.99;38.57;101016.78;5105619;28;2420;-58
2022/04/19 05:47:21;;;;;;;;;;;;;;;20.03;38.69;101022.75;5101881;28;2466;-58
2022/04/19 05:49:48;;;;;;;;;;;;;;;20.06;38.94;101024.34;5105740;28;2433;-58
2022/04/19 05:52:15;;;;;;;;;;;;;;;20.08;39.02;101033.81;5100778;28;2754;-58
2022/04/19 05:54:43;;;;;;;;;;;;;;;20.09;39.29;101029.56;5113095;27;2508;-57
2022/04/19 05:57:10;;;;;;;;;;;;;;;20.12;39.60;101038.28;5123512;27;2648;-58
2022/04/19 05:59:36;;;;;;;;;;;;;;;20.16;39.63;101032.72;5104428;28;2317;-58
2022/04/19 06:04:54;;;;;;;;;;;;;;;20.21;39.92;101032.28;5102686;28;2645;-57
2022/04/19 06:07:25;;;;;;;;;;;;;;;20.21;40.17;101025.81;5118222;27;2533;-58
2022/04/19 06:09:54;;;;;;;;;;;;;;;20.24;40.27;101030.25;5102442;27;2604;-57
2022/04/19 06:12:21;;;;;;;;;;;;;;;20.23;40.44;101031.66;5105749;28;2743;-58
2022/04/19 06:14:50;;;;;;;;;;;;;;;20.25;40.58;101031.75;5103851;28;2628;-57
2022/04/19 06:17:21;;;;;;;;;;;;;;;20.29;40.65;101035.59;5122246;27;2696;-57
2022/04/19 06:19:48;;;;;;;;;;;;;;;20.29;40.74;101029.84;5101832;28;2473;-57
2022/04/19 06:22:15;;;;;;;;;;;;;;;20.30;40.78;101021.94;5105618;28;2584;-58
2022/04/19 06:24:52;;;;;;;;;;;;;;;20.29;41.06;101031.94;5106278;28;1596;-57
2022/04/19 06:27:18;;;;;;;;;;;;;;;20.27;41.15;101029.72;5104881;28;2392;-58
2022/04/19 06:29:45;;;;;;;;;;;;;;;20.30;41.21;101028.44;5105239;27;2575;-58
2022/04/19 06:32:13;;;;;;;;;;;;;;;20.32;41.42;101024.16;5123550;27;2562;-58
2022/04/19 06:34:42;;;;;;;;;;;;;;;20.35;41.39;101038.00;5103822;27;2618;-57
2022/04/19 06:37:13;;;;;;;;;;;;;;;20.35;41.52;101029.38;5106276;27;2520;-58
2022/04/19 06:39:43;;;;;;;;;;;;;;;20.40;41.53;101031.06;5107277;27;2587;-58
2022/04/19 06:42:11;;;;;;;;;;;;;;;20.43;41.49;101035.53;5105521;27;2414;-57
2022/04/19 06:45:04;;;;;;;;;;;;;;;20.46;41.72;101040.00;5081011;27;2707;-57
2022/04/19 06:47:34;;;;;;;;;;;;;;;20.47;41.74;101034.97;5123207;27;2503;-58
2022/04/19 06:50:03;;;;;;;;;;;;;;;20.47;41.80;101041.47;5108789;27;2555;-58
2022/04/19 06:52:30;;;;;;;;;;;;;;;20.48;41.80;101037.22;5107626;27;2442;-58
2022/04/19 06:54:58;;;;;;;;;;;;;;;20.47;41.97;101041.47;5109241;27;2621;-57
2022/04/19 06:57:25;;;;;;;;;;;;;;;20.47;42.00;101041.47;5109755;27;2395;-57
2022/04/19 06:59:51;;;;;;;;;;;;;;;20.50;42.01;101051.69;5102044;27;2591;-57
2022/04/19 07:02:18;;;;;;;;;;;;;;;20.50;42.00;101057.44;5125662;27;2498;-57
2022/04/19 07:04:54;;;;;;;;;;;;;;;20.51;41.94;101053.16;5124804;27;2730;-58
2022/04/19 07:07:20;;;;;;;;;;;;;;;20.50;42.08;101050.94;5101842;27;2406;-58
2022/04/19 07:09:49;;;;;;;;;;;;;;;20.52;42.06;101048.16;5104930;27;2547;-58
2022/04/19 07:12:19;;;;;;;;;;;;;;;20.53;42.16;101058.28;5121470;27;2647;-58
2022/04/19 07:15:13;;;;;;;;;;;;;;;20.52;42.14;101056.78;5106510;27;2563;-57
2022/04/19 07:17:44;;;;;;;;;;;;;;;20.57;42.10;101054.88;5124679;27;2353;-57
2022/04/19 07:28:36;;;;;;;;;;;;;;;20.56;42.35;101044.75;5106849;27;2585;-57
2022/04/19 07:31:06;;;;;;;;;;;;;;;20.57;42.34;101054.88;5094846;28;2705;-57
2022/04/19 07:33:39;;;;;;;;;;;;;;;20.56;42.32;101057.03;5096407;28;2481;-57
2022/04/19 07:36:06;;;;;;;;;;;;;;;20.58;42.37;101059.25;5097792;28;2686;-58
2022/04/19 07:38:33;;;;;;;;;;;;;;;20.58;42.24;101056.38;5100914;28;2607;-57
2022/04/19 07:41:08;;;;;;;;;;;;;;;20.58;42.30;101051.38;5104376;28;2482;-57
2022/04/19 07:43:38;;;;;;;;;;;;;;;20.58;42.33;101050.63;5097820;28;2845;-58
2022/04/19 07:46:04;;;;;;;;;;;;;;;20.57;42.41;101049.88;5118440;27;2610;-58
2022/04/19 07:48:31;;;;;;;;;;;;;;;20.60;42.31;101056.50;5104076;28;1575;-58
2022/04/19 07:50:57;;;;;;;;;;;;;;;20.59;42.36;101055.75;5100516;28;2401;-58
2022/04/19 07:53:24;;;;;;;;;;;;;;;20.57;42.38;101052.00;5103465;28;2475;-57
2022/04/19 07:55:55;;;;;;;;;;;;;;;20.59;42.39;101057.88;5103283;28;2547;-57
2022/04/19 07:58:21;;;;;;;;;;;;;;;20.59;42.33;101052.09;5101066;28;2721;-58
2022/04/19 08:00:48;;;;;;;;;;;;;;;20.58;42.30;101050.63;5104719;28;1918;-58
2022/04/19 08:03:14;;;;;;;;;;;;;;;20.60;42.36;101054.34;5116325;28;2467;-58
2022/04/19 08:05:41;;;;;;;;;;;;;;;20.58;42.38;101050.63;5104395;28;2690;-58
2022/04/19 08:08:07;;;;;;;;;;;;;;;20.57;42.42;101040.50;5107062;28;2557;-57
2022/04/19 08:10:35;;;;;;;;;;;;;;;20.59;42.33;101049.22;5104521;28;2297;-57
2022/04/19 08:13:05;;;;;;;;;;;;;;;20.56;42.42;101047.63;5099625;28;2656;-57
2022/04/19 08:15:31;;;;;;;;;;;;;;;20.58;42.47;101053.50;5101723;28;2491;-57
2022/04/19 08:18:04;;;;;;;;;;;;;;;20.58;42.53;101044.88;5100954;28;2436;-58
2022/04/19 08:20:30;;;;;;;;;;;;;;;20.57;42.57;101031.88;5095541;28;2575;-57
2022/04/19 08:22:57;;;;;;;;;;;;;;;20.58;42.46;101034.09;5098983;28;2548;-58
2022/04/19 08:25:24;;;;;;;;;;;;;;;20.59;42.60;101035.59;5104017;28;2579;-58
2022/04/19 08:27:52;;;;;;;;;;;;;;;20.58;42.59;101044.88;5105011;28;2441;-57
2022/04/19 08:30:18;;;;;;;;;;;;;;;20.57;42.66;101049.13;5102124;28;2525;-57
2022/04/19 08:32:47;;;;;;;;;;;;;;;20.58;42.69;101033.38;5102174;27;2521;-57
2022/04/19 08:35:17;;;;;;;;;;;;;;;20.57;42.73;101037.63;5102633;28;3372;-56
2022/04/19 08:37:44;;;;;;;;;;;;;;;20.56;42.76;101034.00;5106223;28;3360;-57
2022/04/19 08:40:11;;;;;;;;;;;;;;;20.58;42.90;101036.25;5107349;28;1920;-58
2022/04/19 08:42:40;;;;;;;;;;;;;;;20.58;42.80;101039.13;5106488;27;2608;-57
2022/04/19 08:45:07;;;;;;;;;;;;;;;20.58;42.84;101025.47;5106726;28;2696;-57
2022/04/19 08:47:37;;;;;;;;;;;;;;;20.59;42.90;101024.09;5103934;28;2545;-58
2022/04/19 08:50:04;;;;;;;;;;;;;;;20.59;42.89;101031.97;5104933;28;2699;-57
2022/04/19 08:52:34;;;;;;;;;;;;;;;20.58;42.89;101034.09;5105964;28;2712;-58
2022/04/19 08:57:45;;;;;;;;;;;;;;;20.60;42.99;101025.56;5107140;28;2616;-58
2022/04/19 09:00:12;;;;;;;;;;;;;;;20.58;42.99;101030.50;5108459;28;2619;-60
2022/04/19 09:02:39;;;;;;;;;;;;;;;20.58;42.99;101036.25;5109124;28;1846;-58
2022/04/19 09:05:12;;;;;;;;;;;;;;;20.58;43.11;101034.09;5108132;28;2618;-57
2022/04/19 09:07:38;;;;;;;;;;;;;;;20.59;43.09;101029.09;5105547;28;3230;-60
2022/04/19 09:10:06;;;;;;;;;;;;;;;20.58;43.04;101027.63;5104204;28;3096;-57
2022/04/19 09:12:32;;;;;;;;;;;;;;;20.59;43.14;101029.09;5097358;28;3342;-58
2022/04/19 09:15:06;;;;;;;;;;;;;;;20.57;43.14;101026.09;5104914;28;2367;-57
2022/04/19 09:17:33;;;;;;;;;;;;;;;20.60;42.78;101042.84;5106550;28;2562;-57
2022/04/19 09:20:12;;;;;;;;;;;;;;;20.60;42.99;101031.34;5107258;28;2425;-57
2022/04/19 09:22:39;;;;;;;;;;;;;;;20.61;42.94;101035.69;5107945;28;1967;-57
2022/04/19 09:25:18;;;;;;;;;;;;;;;20.61;42.99;101034.94;5104221;28;2486;-57
2022/04/19 09:27:45;;;;;;;;;;;;;;;20.64;42.81;101036.53;5106646;28;2355;-57
2022/04/19 09:30:15;;;;;;;;;;;;;;;20.64;42.95;101030.78;5110675;27;3192;-57
2022/04/19 09:32:42;;;;;;;;;;;;;;;20.63;42.99;101029.28;5117984;27;3347;-57
2022/04/19 09:35:08;;;;;;;;;;;;;;;20.64;43.03;101022.91;5125073;27;2584;-57
2022/04/19 09:37:34;;;;;;;;;;;;;;;20.67;43.14;101030.22;5117832;27;3355;-58
2022/04/19 09:40:01;;;;;;;;;;;;;;;20.67;43.18;101033.09;5114337;27;3371;-57
2022/04/19 09:42:27;;;;;;;;;;;;;;;20.68;43.43;101036.72;5125907;27;1705;-57
2022/04/19 09:44:56;;;;;;;;;;;;;;;20.67;43.49;101030.22;5123559;27;3047;-57
2022/04/19 09:47:22;;;;;;;;;;;;;;;20.68;43.71;101043.25;5124867;27;2501;-58
2022/04/19 09:49:49;;;;;;;;;;;;;;;20.65;43.75;101044.50;5121492;27;2830;-57
2022/04/19 09:52:22;;;;;;;;;;;;;;;20.62;43.59;101039.31;5122831;27;2581;-57
2022/04/19 09:55:01;;;;;;;;;;;;;;;20.61;43.79;101041.44;5123046;27;2779;-63
2022/04/19 09:57:28;;;;;;;;;;;;;;;20.49;42.59;101038.69;5121585;27;2556;-58
2022/04/19 09:59:54;;;;;;;;;;;;;;;20.56;43.15;101030.38;5125009;27;2463;-58
2022/04/19 10:10:37;;;;;;;;;;;;;;;20.66;43.29;101033.75;5122825;27;2421;-57
2022/04/19 10:13:04;;;;;;;;;;;;;;;20.67;43.28;101023.72;5122759;27;2427;-58
2022/04/19 10:15:31;;;;;;;;;;;;;;;20.70;43.34;101022.44;5125967;27;2430;-57
2022/04/19 10:17:57;;;;;;;;;;;;;;;20.70;43.37;101034.69;5102450;27;2642;-57
2022/04/19 10:20:32;;;;;;;;;;;;;;;20.70;43.56;101016.69;5125810;27;2540;-63
2022/04/19 10:23:08;;;;;;;;;;;;;;;20.70;43.72;101022.44;5123923;27;2525;-58
2022/04/19 10:25:43;;;;;;;;;;;;;;;20.64;43.87;101013.53;5123449;27;2494;-59
2022/04/19 10:28:13;;;;;;;;;;;;;;;20.64;43.81;101020.03;5126552;27;2361;-58
2022/04/19 10:30:46;;;;;;;;;;;;;;;20.60;43.77;101016.22;5122911;27;2656;-58
2022/04/19 10:33:31;;;;;;;;;;;;;;;20.57;43.72;101012.50;5125793;27;2609;-58
2022/04/19 10:36:14;;;;;;;;;;;;;;;20.57;43.60;101026.09;5127534;27;2448;-58
2022/04/19 10:38:41;;;;;;;;;;;;;;;20.54;43.55;101010.84;5125002;27;2612;-59
2022/04/19 10:41:07;;;;;;;;;;;;;;;20.56;43.43;101024.59;5127811;27;2464;-58
2022/04/19 10:43:33;;;;;;;;;;;;;;;20.54;43.28;101010.84;5125456;27;2283;-58
2022/04/19 10:46:16;;;;;;;;;;;;;;;20.55;43.37;101015.25;5126579;27;2556;-59
2022/04/19 10:49:01;;;;;;;;;;;;;;;20.53;43.28;101014.41;5106687;27;2715;-58
2022/04/19 10:51:27;;;;;;;;;;;;;;;20.53;43.32;101003.63;5126567;27;2398;-58
2022/04/19 10:53:54;;;;;;;;;;;;;;;20.53;43.13;101011.53;5124266;27;2557;-58
2022/04/19 10:56:20;;;;;;;;;;;;;;;20.53;43.07;101005.78;5123221;27;2623;-62
2022/04/19 10:58:46;;;;;;;;;;;;;;;20.52;43.06;101002.13;5121236;27;2605;-59
2022/04/19 11:01:26;;;;;;;;;;;;;;;20.53;43.04;101000.03;5102935;27;2710;-59
2022/04/19 11:03:54;;;;;;;;;;;;;;;20.50;43.10;101014.31;5123553;27;2921;-57
2022/04/19 11:06:31;;;;;;;;;;;;;;;20.50;43.10;100999.16;5118072;27;2673;-59
2022/04/19 11:09:07;;;;;;;;;;;;;;;20.50;43.00;100999.91;5114010;27;2720;-59
2022/04/19 11:11:46;;;;;;;;;;;;;;;20.48;43.06;100996.94;5119729;27;2945;-59
2022/04/19 11:14:18;;;;;;;;;;;;;;;20.49;42.98;100995.53;5122881;27;2738;-58
2022/04/19 11:16:51;;;;;;;;;;;;;;;20.48;43.03;100996.94;5117328;27;2795;-59
2022/04/19 11:19:19;;;;;;;;;;;;;;;20.49;43.07;101009.91;5118103;27;2978;-59
2022/04/19 11:21:51;;;;;;;;;;;;;;;20.48;42.95;101002.69;5105642;27;2385;-58
2022/04/19 11:24:36;;;;;;;;;;;;;;;20.49;42.98;101004.16;5116023;27;2845;-59
2022/04/19 11:27:02;;;;;;;;;;;;;;;20.48;42.90;100993.31;5120381;27;2733;-59
2022/04/19 11:29:45;;;;;;;;;;;;;;;20.47;43.11;100989.69;5115196;27;2650;-60
2022/04/19 11:32:11;;;;;;;;;;;;;;;20.47;43.18;101006.22;5117938;27;2667;-59
2022/04/19 11:34:37;;;;;;;;;;;;;;;20.45;43.24;101006.84;5116718;27;2809;-60
2022/04/19 11:37:04;;;;;;;;;;;;;;;20.46;43.18;100993.97;5118311;27;2429;-59
2022/04/19 11:47:58;;;;;;;;;;;;;;;20.46;43.18;100998.97;5117950;28;2871;-59
2022/04/19 11:50:30;;;;;;;;;;;;;;;20.45;43.25;101001.09;5117556;28;2865;-60
2022/04/19 11:53:02;;;;;;;;;;;;;;;20.45;43.29;100989.59;5115708;28;2739;-59
2022/04/19 11:55:29;;;;;;;;;;;;;;;20.47;43.39;101004.06;5115576;28;2669;-66
2022/04/19 11:58:04;;;;;;;;;;;;;;;20.48;43.67;100996.22;5122336;28;2398;-65
2022/04/19 12:00:31;;;;;;;;;;;;;;;20.53;43.70;101009.38;5121373;28;2465;-59
2022/04/19 12:02:58;;;;;;;;;;;;;;;20.55;44.24;101015.25;5122652;27;2534;-59
2022/04/19 12:05:27;;;;;;;;;;;;;;;20.57;44.50;101011.72;5117074;27;2465;-59
2022/04/19 12:07:55;;;;;;;;;;;;;;;20.57;44.90;101009.63;5110978;27;2465;-59
2022/04/19 12:10:21;;;;;;;;;;;;;;;20.57;45.02;101012.50;5115356;27;2501;-59
2022/04/19 12:12:48;;;;;;;;;;;;;;;20.58;45.08;101016.09;5121069;27;2306;-58
2022/04/19 12:15:33;;;;;;;;;;;;;;;20.60;44.98;101019.09;5097679;27;2698;-59
2022/04/19 12:18:00;;;;;;;;;;;;;;;20.61;45.07;101020.56;5118269;27;2400;-59
2022/04/19 12:20:26;;;;;;;;;;;;;;;20.59;45.14;101021.22;5115136;27;2599;-57
2022/04/19 12:22:52;;;;;;;;;;;;;;;20.59;45.03;101018.34;5100667;27;2309;-58
2022/04/19 12:25:23;;;;;;;;;;;;;;;20.59;45.09;101012.59;5119419;27;2580;-59
2022/04/19 12:27:50;;;;;;;;;;;;;;;20.62;44.90;101017.03;5111837;27;2478;-58
2022/04/19 12:30:16;;;;;;;;;;;;;;;20.62;44.93;101010.56;5112373;27;2662;-58
2022/04/19 12:32:53;;;;;;;;;;;;;;;20.64;44.95;101019.28;5120927;27;2309;-58
2022/04/19 12:35:26;;;;;;;;;;;;;;;20.62;44.96;101016.31;5121499;27;2604;-58
2022/04/19 12:38:16;;;;;;;;;;;;;;;20.62;44.95;101005.53;5099200;27;2392;-59
2022/04/19 12:40:46;;;;;;;;;;;;;;;20.64;44.89;101013.53;5117691;27;2596;-58
2022/04/19 12:43:14;;;;;;;;;;;;;;;20.62;45.00;101010.56;5114413;27;2643;-58
2022/04/19 12:45:41;;;;;;;;;;;;;;;20.61;45.01;101003.28;5120155;27;2255;-59
2022/04/19 12:48:16;;;;;;;;;;;;;;;20.62;44.97;101010.56;5119015;27;2286;-59
2022/04/19 12:50:42;;;;;;;;;;;;;;;20.60;44.85;101010.44;5121246;27;2376;-58
2022/04/19 12:53:21;;;;;;;;;;;;;;;20.63;44.82;101000.53;5116269;27;2655;-58
2022/04/19 12:55:48;;;;;;;;;;;;;;;20.66;44.70;101002.09;5119748;27;2465;-58
2022/04/19 12:58:14;;;;;;;;;;;;;;;20.65;44.71;101003.50;5115477;27;2413;-58
2022/04/19 13:00:40;;;;;;;;;;;;;;;20.63;44.81;101004.13;5121161;27;2571;-58
2022/04/19 13:03:07;;;;;;;;;;;;;;;20.66;44.61;100999.22;5121162;27;2374;-58
2022/04/19 13:13:48;;;;;;;;;;;;;;;20.65;44.47;100997.75;5120270;27;2592;-59
2022/04/19 13:16:14;;;;;;;;;;;;;;;20.64;44.51;100991.25;5118055;27;2529;-58
2022/04/19 13:18:41;;;;;;;;;;;;;;;20.66;44.42;100993.47;5117185;27;2374;-58
2022/04/19 13:21:07;;;;;;;;;;;;;;;20.65;44.42;100994.88;5110063;27;2524;-58
2022/04/19 13:23:33;;;;;;;;;;;;;;;20.67;44.32;101000.72;5112547;27;2529;-58
2022/04/19 13:26:00;;;;;;;;;;;;;;;20.66;44.06;100993.47;5120842;27;2489;-59
2022/04/19 13:28:26;;;;;;;;;;;;;;;20.65;43.98;100998.47;5115362;27;2376;-58
2022/04/19 13:30:53;;;;;;;;;;;;;;;20.65;43.91;100997.75;5116640;27;2346;-58
2022/04/19 13:33:19;;;;;;;;;;;;;;;20.63;43.94;100994.75;5116682;27;2733;-58
2022/04/19 13:35:48;;;;;;;;;;;;;;;20.62;43.94;101001.91;5113293;27;2537;-58
2022/04/19 13:38:24;;;;;;;;;;;;;;;20.61;43.81;100994.66;5113161;27;2605;-59
2022/04/19 13:40:50;;;;;;;;;;;;;;;20.59;43.73;100988.81;5115056;27;2335;-58
2022/04/19 13:43:16;;;;;;;;;;;;;;;20.66;43.60;100993.47;5112574;27;2481;-58
2022/04/19 13:45:43;;;;;;;;;;;;;;;20.70;43.56;100999.41;5117393;27;3431;-59